Time;durP1;ratioP1;P1;durP2;ratioP2;P2;SDS_P1;SDS_P2;PMS_P1;PMS_P2;Temp;Humidity;BMP_temperature;BMP_pressure;BME280_temperature;BME280_humidity;BME280_pressure;Samples;Min_cycle;Max_cycle;Signal;HPM_P1;HPM_P2
2022/04/13 00:00:57;;;;;;;0.98;0.98;;;;;;;2.36;100.00;100053.69;1735233;82;21582;-77
2022/04/13 00:03:24;;;;;;;1.40;1.30;;;;;;;2.36;100.00;100057.55;1707129;82;21045;-78
2022/04/13 00:05:55;;;;;;;1.40;1.30;;;;;;;2.34;100.00;100049.08;1727271;82;21056;-80
2022/04/13 00:08:22;;;;;;;1.30;1.07;;;;;;;2.34;100.00;100058.88;1724695;82;21576;-77
2022/04/13 00:10:50;;;;;;;1.45;1.20;;;;;;;2.34;100.00;100050.36;1725283;83;21023;-77
2022/04/13 00:13:17;;;;;;;1.62;1.27;;;;;;;2.33;100.00;100046.12;1725527;83;21043;-79
2022/04/13 00:15:49;;;;;;;1.62;1.20;;;;;;;2.34;100.00;100038.80;1725305;83;20987;-79
2022/04/13 00:18:19;;;;;;;1.62;1.27;;;;;;;2.34;100.00;100037.52;1701439;82;21007;-80
2022/04/13 00:20:46;;;;;;;1.72;1.25;;;;;;;2.34;100.00;100034.94;1698482;83;21007;-79
2022/04/13 00:23:13;;;;;;;2.08;1.30;;;;;;;2.34;100.00;100026.77;1695254;83;21070;-81
2022/04/13 00:25:43;;;;;;;1.27;1.17;;;;;;;2.35;100.00;100027.61;1720575;82;21035;-81
2022/04/13 00:28:10;;;;;;;1.15;0.72;;;;;;;2.35;100.00;100025.05;1728438;82;21007;-81
2022/04/13 00:30:38;;;;;;;0.93;0.80;;;;;;;2.34;100.00;100019.52;1728971;83;21649;-81
2022/04/13 00:33:08;;;;;;;1.12;0.90;;;;;;;2.33;100.00;100019.14;1732740;82;21547;-83
2022/04/13 00:35:37;;;;;;;1.12;1.02;;;;;;;2.32;100.00;100015.73;1742340;82;21499;-80
2022/04/13 00:38:07;;;;;;;1.30;0.82;;;;;;;2.33;100.00;100013.53;1737596;82;21069;-84
2022/04/13 00:40:41;;;;;;;0.97;0.97;;;;;;;2.33;100.00;100008.40;1694927;82;21027;-80
2022/04/13 00:43:09;;;;;;;2.35;1.15;;;;;;;2.33;100.00;100003.73;1695766;82;21148;-79
2022/04/13 00:45:37;;;;;;;0.90;0.90;;;;;;;2.32;100.00;100002.87;1704875;83;21098;-79
2022/04/13 00:48:06;;;;;;;1.12;1.02;;;;;;;2.34;100.00;99998.97;1729434;82;21015;-79
2022/04/13 00:50:35;;;;;;;1.20;1.10;;;;;;;2.33;100.00;99994.73;1729994;82;21449;-80
2022/04/13 00:53:06;;;;;;;1.65;1.12;;;;;;;2.33;100.00;99990.88;1729899;82;21655;-82
2022/04/13 00:55:37;;;;;;;1.52;1.00;;;;;;;2.32;100.00;99985.36;1730023;82;21137;-82
2022/04/13 00:58:07;;;;;;;1.30;1.07;;;;;;;2.31;100.00;99983.70;1725418;82;21124;-82
2022/04/13 01:00:38;;;;;;;1.52;1.05;;;;;;;2.32;100.00;99986.64;1744479;82;21050;-81
2022/04/13 01:03:07;;;;;;;1.42;0.82;;;;;;;2.31;100.00;99984.55;1736122;81;21058;-80
2022/04/13 01:05:36;;;;;;;;;;;;;;;2.31;100.00;99973.41;1756710;81;21019;-80
2022/04/13 01:08:04;;;;;;;1.12;0.88;;;;;;;2.31;100.00;99980.69;1724068;82;21098;-79
2022/04/13 01:10:33;;;;;;;1.47;1.05;;;;;;;2.30;100.00;99967.46;1753944;81;21030;-82
2022/04/13 01:13:02;;;;;;;2.05;0.98;;;;;;;2.30;100.00;99983.31;1729915;82;21046;-81
2022/04/13 01:15:30;;;;;;;1.10;0.75;;;;;;;2.29;100.00;99973.94;1729799;82;21078;-81
2022/04/13 01:17:58;;;;;;;0.93;0.88;;;;;;;2.28;100.00;99974.88;1726813;82;21706;-80
2022/04/13 01:20:28;;;;;;;1.12;1.00;;;;;;;2.29;100.00;99969.65;1722544;82;21149;-83
2022/04/13 01:22:57;;;;;;;0.90;0.90;;;;;;;2.30;100.00;99963.61;1690109;84;21560;-81
2022/04/13 01:25:27;;;;;;;1.45;1.10;;;;;;;2.31;100.00;99961.86;1721576;81;21606;-80
2022/04/13 01:27:56;;;;;;;0.80;0.62;;;;;;;2.30;100.00;99964.89;1730149;82;21168;-80
2022/04/13 01:30:24;;;;;;;1.05;0.95;;;;;;;2.30;100.00;99958.91;1729557;81;21005;-80
2022/04/13 01:32:54;;;;;;;1.07;0.98;;;;;;;2.29;100.00;99962.37;1729987;82;21156;-80
2022/04/13 01:35:23;;;;;;;1.92;1.17;;;;;;;2.30;100.00;99949.91;1730316;81;21427;-80
2022/04/13 01:37:51;;;;;;;1.10;0.88;;;;;;;2.30;100.00;99952.05;1730131;81;21729;-81
2022/04/13 01:40:18;;;;;;;1.30;1.20;;;;;;;2.28;100.00;99938.44;1730338;82;21005;-84
2022/04/13 01:42:48;;;;;;;0.95;0.85;;;;;;;2.29;100.00;99948.25;1730104;81;21077;-81
2022/04/13 01:45:19;;;;;;;1.50;1.12;;;;;;;2.28;100.00;99938.91;1730115;81;21159;-80
2022/04/13 01:47:49;;;;;;;1.35;0.90;;;;;;;2.27;100.00;99932.92;1729804;81;21113;-79
2022/04/13 01:50:18;;;;;;;1.02;0.85;;;;;;;2.26;100.00;99931.26;1729517;82;21076;-79
2022/04/13 01:52:48;;;;;;;1.25;1.15;;;;;;;2.27;100.00;99933.39;1729767;82;21053;-80
2022/04/13 01:55:20;;;;;;;0.80;0.80;;;;;;;2.28;100.00;99933.30;1722929;82;21606;-81
2022/04/13 01:57:51;;;;;;;1.55;1.22;;;;;;;2.27;100.00;99924.39;1705767;82;21151;-82
2022/04/13 02:00:20;;;;;;;1.10;1.00;;;;;;;2.28;100.00;99914.50;1690236;84;21070;-83
2022/04/13 02:02:47;;;;;;;1.35;1.05;;;;;;;2.27;100.00;99929.06;1690721;84;21075;-82
2022/04/13 02:05:15;;;;;;;1.65;1.17;;;;;;;2.28;100.00;99917.07;1690250;84;21054;-80
2022/04/13 02:07:44;;;;;;;0.93;0.85;;;;;;;2.27;100.00;99917.97;1690504;84;21015;-80
2022/04/13 02:10:13;;;;;;;1.65;1.00;;;;;;;2.28;100.00;99918.35;1690115;84;21063;-79
2022/04/13 02:12:41;;;;;;;1.07;1.00;;;;;;;2.26;100.00;99911.98;1690268;84;21604;-79
2022/04/13 02:15:09;;;;;;;1.27;1.00;;;;;;;2.25;100.00;99906.47;1690314;84;21032;-79
2022/04/13 02:17:42;;;;;;;2.12;1.00;;;;;;;2.26;100.00;99911.17;1690525;84;21075;-79
2022/04/13 02:20:09;;;;;;;1.10;1.00;;;;;;;2.28;100.00;99915.78;1735590;81;21565;-78
2022/04/13 02:22:37;;;;;;;1.10;1.00;;;;;;;2.27;100.00;99906.41;1730078;82;21249;-80
2022/04/13 02:25:06;;;;;;;1.32;0.90;;;;;;;2.26;100.00;99899.61;1709192;82;21054;-79
2022/04/13 02:27:33;;;;;;;1.35;0.85;;;;;;;2.26;100.00;99905.56;1732279;82;21620;-81
2022/04/13 02:30:03;;;;;;;1.30;1.07;;;;;;;2.26;100.00;99904.28;1728727;82;21003;-80
2022/04/13 02:32:30;;;;;;;1.37;1.00;;;;;;;2.25;100.00;99896.20;1728679;82;21450;-79
2022/04/13 02:34:58;;;;;;;1.00;1.00;;;;;;;2.25;100.00;99896.20;1703873;82;21141;-82
2022/04/13 02:37:25;;;;;;;1.17;1.07;;;;;;;2.24;100.00;99891.14;1690395;84;21109;-82
2022/04/13 02:39:54;;;;;;;0.72;0.72;;;;;;;2.24;100.00;99901.42;1716433;82;21062;-82
2022/04/13 02:42:21;;;;;;;1.52;1.05;;;;;;;2.26;100.00;99900.89;1695778;82;21035;-79
2022/04/13 02:44:49;;;;;;;1.00;0.85;;;;;;;2.25;100.00;99901.33;1692141;84;21071;-79
2022/04/13 02:47:17;;;;;;;1.00;0.90;;;;;;;2.25;100.00;99896.66;1679872;82;21335;-79
2022/04/13 02:49:46;;;;;;;1.50;0.98;;;;;;;2.24;100.00;99904.84;1731928;82;21129;-78
2022/04/13 02:52:13;;;;;;;1.00;0.85;;;;;;;2.26;100.00;99900.89;1732233;82;21528;-80
2022/04/13 02:54:40;;;;;;;2.30;0.85;;;;;;;2.24;100.00;99902.27;1732060;82;21046;-81
2022/04/13 02:57:07;;;;;;;1.20;0.90;;;;;;;2.24;100.00;99900.14;1732595;82;21129;-80
2022/04/13 02:59:35;;;;;;;0.80;0.80;;;;;;;2.25;100.00;99905.66;1731757;82;21376;-77
2022/04/13 03:02:04;;;;;;;1.07;0.78;;;;;;;2.24;100.00;99906.12;1732125;82;21113;-77
2022/04/13 03:04:34;;;;;;;0.70;0.70;;;;;;;2.24;100.00;99912.98;1732273;82;20974;-79
2022/04/13 03:07:03;;;;;;;1.25;0.98;;;;;;;2.24;100.00;99898.41;1731814;82;21015;-78
2022/04/13 03:09:31;;;;;;;1.10;0.80;;;;;;;2.25;100.00;99903.09;1732214;82;21022;-79
2022/04/13 03:12:04;;;;;;;1.00;0.90;;;;;;;2.24;100.00;99897.13;1732401;82;21146;-80
2022/04/13 03:14:31;;;;;;;0.78;0.78;;;;;;;2.25;100.00;99903.90;1731793;82;21806;-80
2022/04/13 03:17:01;;;;;;;0.82;0.80;;;;;;;2.25;100.00;99903.90;1732244;82;22228;-82
2022/04/13 03:19:32;;;;;;;0.93;0.82;;;;;;;2.25;100.00;99900.05;1722156;81;21055;-79
2022/04/13 03:21:59;;;;;;;1.72;0.60;;;;;;;2.25;100.00;99897.48;1706074;81;21027;-79
2022/04/13 03:24:27;;;;;;;0.80;0.78;;;;;;;2.26;100.00;99889.33;1692197;84;21185;-82
2022/04/13 03:26:55;;;;;;;0.70;0.70;;;;;;;2.25;100.00;99892.81;1691880;84;21090;-79
2022/04/13 03:29:24;;;;;;;1.05;0.88;;;;;;;2.25;100.00;99892.81;1692031;84;21134;-80
2022/04/13 03:31:52;;;;;;;0.93;0.72;;;;;;;2.24;100.00;99879.14;1692517;84;21639;-79
2022/04/13 03:34:23;;;;;;;1.15;0.90;;;;;;;2.25;100.00;99880.78;1692490;84;21110;-81
2022/04/13 03:36:51;;;;;;;0.70;0.70;;;;;;;2.26;100.00;99885.48;1659435;84;21128;-80
2022/04/13 03:39:18;;;;;;;0.60;0.60;;;;;;;2.26;100.00;99881.63;1692445;84;21127;-81
2022/04/13 03:41:47;;;;;;;1.82;0.78;;;;;;;2.26;100.00;99880.34;1692206;84;21726;-81
2022/04/13 03:44:16;;;;;;;0.75;0.70;;;;;;;2.26;100.00;99880.34;1692246;84;21055;-79
2022/04/13 03:46:44;;;;;;;0.70;0.70;;;;;;;2.26;100.00;99875.20;1692473;84;21054;-79
2022/04/13 03:49:12;;;;;;;0.70;0.68;;;;;;;2.28;100.00;99878.06;1736872;82;21129;-80
2022/04/13 03:51:41;;;;;;;1.60;0.80;;;;;;;2.28;100.00;99870.83;1737530;82;21120;-78
2022/04/13 03:54:09;;;;;;;2.45;0.90;;;;;;;2.29;100.00;99877.59;1737625;82;21054;-78
2022/04/13 03:56:39;;;;;;;0.75;0.60;;;;;;;2.29;100.00;99876.31;1721268;81;21122;-79
2022/04/13 03:59:09;;;;;;;1.00;0.90;;;;;;;2.29;100.00;99866.88;1711681;81;21595;-80
2022/04/13 04:01:38;;;;;;;0.53;0.53;;;;;;;2.28;100.00;99870.83;1732029;82;21030;-79
2022/04/13 04:04:10;;;;;;;2.15;0.60;;;;;;;2.28;100.00;99870.83;1732141;82;20935;-80
2022/04/13 04:06:36;;;;;;;0.45;0.45;;;;;;;2.29;100.00;99874.59;1732196;82;21077;-81
2022/04/13 04:09:03;;;;;;;1.05;0.68;;;;;;;2.29;100.00;99866.88;1732371;82;21133;-81
2022/04/13 04:11:32;;;;;;;1.12;0.85;;;;;;;2.29;100.00;99872.45;1732561;82;21050;-79
2022/04/13 04:14:01;;;;;;;0.70;0.57;;;;;;;2.32;100.00;99853.03;1724432;82;21861;-80
2022/04/13 04:16:29;;;;;;;0.70;0.70;;;;;;;2.32;100.00;99853.85;1732300;82;21043;-82
2022/04/13 04:19:02;;;;;;;0.68;0.50;;;;;;;2.32;100.00;99853.85;1729426;81;21092;-79
2022/04/13 04:21:30;;;;;;;0.60;0.60;;;;;;;2.33;100.00;99859.37;1732259;82;21093;-80
2022/04/13 04:23:58;;;;;;;0.82;0.60;;;;;;;2.34;100.00;99847.37;1732856;82;21045;-80
2022/04/13 04:26:27;;;;;;;0.70;0.70;;;;;;;2.34;100.00;99851.22;1732549;82;21046;-80
2022/04/13 04:28:54;;;;;;;1.37;0.90;;;;;;;2.33;100.00;99849.09;1732004;82;21102;-79
2022/04/13 04:34:08;;;;;;;1.25;1.00;;;;;;;2.36;100.00;99842.98;1728655;82;21007;-80
2022/04/13 04:36:35;;;;;;;1.02;0.80;;;;;;;2.39;100.00;99838.95;1692486;83;21046;-79
2022/04/13 04:39:07;;;;;;;1.25;0.70;;;;;;;2.39;100.00;99838.95;1702605;82;21240;-81
2022/04/13 04:41:35;;;;;;;1.27;1.00;;;;;;;2.39;100.00;99835.09;1693329;81;21521;-80
2022/04/13 04:44:04;;;;;;;1.95;1.60;;;;;;;2.42;100.00;99833.66;1690370;84;21047;-85
2022/04/13 04:46:31;;;;;;;2.20;1.57;;;;;;;2.44;100.00;99852.84;1690379;84;21162;-82
2022/04/13 04:48:58;;;;;;;1.62;1.35;;;;;;;2.44;100.00;99852.84;1725830;82;21556;-81
2022/04/13 04:51:26;;;;;;;1.30;1.20;;;;;;;2.44;100.00;99857.98;1730160;82;21954;-80
2022/04/13 04:53:54;;;;;;;0.90;0.70;;;;;;;2.46;100.00;99854.88;1729811;82;21027;-81
2022/04/13 04:56:21;;;;;;;0.90;0.60;;;;;;;2.46;100.00;99851.02;1729985;82;21118;-81
2022/04/13 04:58:48;;;;;;;1.20;1.00;;;;;;;2.46;100.00;99841.56;1730279;82;21078;-80
2022/04/13 05:01:15;;;;;;;1.02;0.75;;;;;;;2.47;100.00;99843.22;1730190;82;21141;-80
2022/04/13 05:03:46;;;;;;;0.60;0.60;;;;;;;2.49;100.00;99838.84;1730447;82;21547;-81
2022/04/13 05:06:11;;;;;;;0.80;0.78;;;;;;;2.49;100.00;99836.27;1728516;82;21066;-83
2022/04/13 05:08:39;;;;;;;1.32;0.80;;;;;;;2.49;100.00;99833.70;1728548;82;21612;-82
2022/04/13 05:11:06;;;;;;;1.65;0.80;;;;;;;2.50;100.00;99830.22;1707790;83;21082;-79
2022/04/13 05:13:34;;;;;;;1.10;0.90;;;;;;;2.49;100.00;99821.28;1707346;83;47664;-81
2022/04/13 05:16:01;;;;;;;0.72;0.72;;;;;;;2.49;100.00;99833.70;1728556;82;21165;-80
2022/04/13 05:18:33;;;;;;;1.20;1.10;;;;;;;2.53;100.00;99839.50;1726243;83;21086;-80
2022/04/13 05:21:04;;;;;;;1.20;1.10;;;;;;;2.53;100.00;99827.46;1706244;82;21015;-81
2022/04/13 05:23:31;;;;;;;0.70;0.70;;;;;;;2.54;100.00;99833.45;1691811;81;21051;-80
2022/04/13 05:25:58;;;;;;;1.55;0.98;;;;;;;2.56;100.00;99843.64;1690467;84;21134;-80
2022/04/13 05:28:29;;;;;;;3.42;1.40;;;;;;;2.60;100.00;99850.29;1690384;84;21047;-81
2022/04/13 05:30:56;;;;;;;1.60;1.05;;;;;;;2.60;100.00;99850.29;1690498;84;21770;-80
2022/04/13 05:33:24;;;;;;;1.15;0.80;;;;;;;2.61;100.00;99846.78;1718113;82;21101;-82
2022/04/13 05:35:52;;;;;;;0.80;0.80;;;;;;;2.63;100.00;99846.25;1707951;82;21574;-83
2022/04/13 05:38:19;;;;;;;1.05;0.90;;;;;;;2.65;100.00;99852.95;1708957;82;21012;-81
2022/04/13 05:40:47;;;;;;;0.80;0.78;;;;;;;2.70;100.00;99841.14;1706522;82;22128;-81
2022/04/13 05:43:14;;;;;;;1.00;0.90;;;;;;;2.70;100.00;99841.14;1725754;82;21442;-80
2022/04/13 05:45:43;;;;;;;0.85;0.82;;;;;;;2.72;100.00;99838.04;1767861;81;21066;-84
2022/04/13 05:48:10;;;;;;;0.62;0.62;;;;;;;2.73;100.00;99831.98;1715719;82;21131;-82
2022/04/13 05:50:37;;;;;;;1.02;0.93;;;;;;;2.73;100.00;99831.98;1717297;82;21085;-83
2022/04/13 05:53:09;;;;;;;0.95;0.70;;;;;;;2.75;100.00;99830.61;1730951;82;21147;-83
2022/04/13 05:55:33;;;;;;;1.30;0.85;;;;;;;2.75;100.00;99833.17;1729275;82;21147;-80
2022/04/13 05:58:04;;;;;;;1.32;0.80;;;;;;;2.77;100.00;99821.08;1729444;80;21015;-81
2022/04/13 06:00:34;;;;;;;1.42;1.00;;;;;;;2.77;100.00;99821.08;1742990;81;21014;-79
2022/04/13 06:03:03;;;;;;;1.17;1.00;;;;;;;2.78;100.00;99818.41;1747802;82;21033;-78
2022/04/13 06:05:32;;;;;;;1.40;0.98;;;;;;;2.77;100.00;99815.46;1748716;81;21003;-79
2022/04/13 06:07:59;;;;;;;2.87;1.27;;;;;;;2.77;100.00;99815.46;1748167;81;21045;-79
2022/04/13 06:10:28;;;;;;;1.37;1.07;;;;;;;2.77;100.00;99803.89;1748858;82;21014;-77
2022/04/13 06:12:55;;;;;;;2.30;1.30;;;;;;;2.77;100.00;99791.03;1748801;82;21066;-78
2022/04/13 06:15:24;;;;;;;1.95;1.45;;;;;;;2.76;100.00;99787.27;1748728;82;21076;-80
2022/04/13 06:17:53;;;;;;;1.60;1.42;;;;;;;2.80;100.00;99811.92;1748457;82;21002;-77
2022/04/13 06:20:22;;;;;;;1.47;1.30;;;;;;;2.81;100.00;99807.12;1736285;82;21055;-78
2022/04/13 06:22:52;;;;;;;4.37;1.40;;;;;;;2.84;100.00;99802.63;1713063;82;21080;-79
2022/04/13 06:25:19;;;;;;;1.42;1.25;;;;;;;2.87;100.00;99799.53;1716388;82;21858;-76
2022/04/13 06:27:49;;;;;;;1.72;1.32;;;;;;;2.88;100.00;99807.62;1735164;81;21166;-78
2022/04/13 06:30:17;;;;;;;1.55;1.37;;;;;;;2.89;100.00;99791.28;1714752;81;21113;-78
2022/04/13 06:32:46;;;;;;;2.12;1.50;;;;;;;2.92;100.00;99798.83;1705282;82;21057;-78
2022/04/13 06:35:16;;;;;;;2.47;1.57;;;;;;;2.90;100.00;99810.47;1734387;81;21019;-77
2022/04/13 06:37:46;;;;;;;2.10;1.70;;;;;;;2.91;100.00;99804.41;1731948;81;21049;-78
2022/04/13 06:40:16;;;;;;;8.13;4.37;;;;;;;2.93;100.00;99797.89;1717457;81;21070;-77
2022/04/13 06:42:44;;;;;;;2.37;1.80;;;;;;;2.93;100.00;99797.89;1736859;82;22404;-77
2022/04/13 06:45:14;;;;;;;0.85;0.78;;;;;;;2.98;100.00;99799.30;1712263;82;21035;-77
2022/04/13 06:47:42;;;;;;;2.50;2.08;;;;;;;2.99;100.00;99794.52;1690887;84;21070;-78
2022/04/13 06:50:12;;;;;;;2.42;2.00;;;;;;;3.03;100.00;99790.50;1711578;82;21166;-77
2022/04/13 06:52:42;;;;;;;4.28;2.02;;;;;;;3.05;100.00;99787.36;1701269;82;21003;-77
2022/04/13 06:55:14;;;;;;;2.77;1.82;;;;;;;3.07;100.00;99782.52;1702345;83;21122;-77
2022/04/13 06:57:41;;;;;;;3.75;1.70;;;;;;;3.06;100.00;99789.88;1711437;82;21103;-78
2022/04/13 07:00:13;;;;;;;3.08;1.55;;;;;;;3.11;100.00;99794.28;1700853;82;21036;-77
2022/04/13 07:02:51;;;;;;;;;;;;;;;;;;;;;
2022/04/13 07:05:11;;;;;;;2.47;1.75;;;;;;;3.16;100.00;99805.60;1673288;84;21045;-77
2022/04/13 07:07:41;;;;;;;1.77;1.52;;;;;;;3.18;100.00;99799.92;1689499;84;21532;-77
2022/04/13 07:10:10;;;;;;;2.30;1.65;;;;;;;3.18;100.00;99808.92;1690142;84;21056;-78
2022/04/13 07:12:39;;;;;;;1.65;1.40;;;;;;;3.22;100.00;99810.86;1689576;84;21624;-79
2022/04/13 07:15:09;;;;;;;3.83;1.60;;;;;;;3.24;100.00;99803.42;1693122;82;21026;-77
2022/04/13 07:17:38;;;;;;;2.65;1.30;;;;;;;3.27;100.00;99813.55;1711971;82;21645;-77
2022/04/13 07:20:09;;;;;;;1.90;1.27;;;;;;;3.30;100.00;99813.82;1721619;82;21220;-76
2022/04/13 07:22:52;;;;;;;2.12;1.70;;;;;;;3.33;100.00;99822.63;1709990;82;21059;-77
2022/04/13 07:25:21;;;;;;;4.33;2.00;;;;;;;3.35;100.00;99814.38;1710131;83;21014;-76
2022/04/13 07:27:51;;;;;;;2.60;1.77;;;;;;;3.39;100.00;99806.86;1722764;83;21063;-76
2022/04/13 07:30:22;;;;;;;2.77;1.87;;;;;;;3.43;100.00;99802.36;1723814;82;21079;-80
2022/04/13 07:32:55;;;;;;;2.70;1.85;;;;;;;3.43;100.00;99807.03;1713108;82;21034;-81
2022/04/13 07:35:23;;;;;;;3.80;2.20;;;;;;;3.48;100.00;99810.16;1701664;82;21559;-77
2022/04/13 07:37:51;;;;;;;3.75;2.65;;;;;;;3.51;100.00;99804.03;1728949;82;21117;-77
2022/04/13 07:40:18;;;;;;;4.83;2.98;;;;;;;3.56;100.00;99808.91;1711703;80;21113;-77
2022/04/13 07:42:45;;;;;;;5.37;3.22;;;;;;;3.56;100.00;99798.14;1688510;82;21007;-76
2022/04/13 07:45:23;;;;;;;;;;;;;;;;;;;;;
2022/04/13 07:47:45;;;;;;;4.92;3.60;;;;;;;3.67;100.00;99799.27;1738216;81;21000;-77
2022/04/13 07:50:12;;;;;;;5.25;2.47;;;;;;;3.69;100.00;99802.11;1732024;82;21054;-75
2022/04/13 07:52:42;;;;;;;10.23;6.35;;;;;;;3.72;100.00;99802.37;1750571;80;21677;-78
2022/04/13 07:55:10;;;;;;;5.12;3.95;;;;;;;3.74;100.00;99797.97;1715274;81;21122;-78
2022/04/13 07:57:40;;;;;;;7.53;4.05;;;;;;;3.79;100.00;99794.21;1752627;81;22041;-78
2022/04/13 08:00:10;;;;;;;5.92;4.33;;;;;;;3.83;100.00;99787.56;1755431;80;21026;-80
2022/04/13 08:02:44;;;;;;;7.05;4.12;;;;;;;3.86;100.00;99787.39;1747826;82;21026;-79
2022/04/13 08:05:13;;;;;;;7.22;4.33;;;;;;;3.90;100.00;99784.98;1748572;81;22210;-77
2022/04/13 08:07:42;;;;;;;6.62;4.60;;;;;;;3.94;100.00;99786.00;1750805;81;21104;-77
2022/04/13 08:10:11;;;;;;;6.67;4.70;;;;;;;4.00;100.00;99780.13;1750089;81;20994;-77
2022/04/13 08:12:40;;;;;;;6.42;4.00;;;;;;;4.05;100.00;99780.19;1749664;81;21611;-77
2022/04/13 08:15:09;;;;;;;7.95;4.90;;;;;;;4.13;100.00;99787.46;1741524;81;21088;-79
2022/04/13 08:17:40;;;;;;;9.13;4.97;;;;;;;4.19;100.00;99779.82;1745987;80;21026;-76
2022/04/13 08:20:11;;;;;;;9.10;5.72;;;;;;;4.26;100.00;99783.67;1751284;81;21818;-78
2022/04/13 08:22:40;;;;;;;9.15;5.55;;;;;;;4.33;100.00;99770.77;1756270;81;21834;-78
2022/04/13 08:25:11;;;;;;;10.20;6.40;;;;;;;4.41;100.00;99776.71;1726039;80;21069;-77
2022/04/13 08:27:39;;;;;;;10.58;6.10;;;;;;;4.47;100.00;99771.19;1741526;81;21544;-77
2022/04/13 08:30:08;;;;;;;8.70;5.92;;;;;;;4.53;100.00;99764.35;1735105;82;21022;-79
2022/04/13 08:32:36;;;;;;;10.03;6.37;;;;;;;4.61;100.00;99773.34;1747150;82;21066;-82
2022/04/13 08:35:09;;;;;;;11.93;5.65;;;;;;;4.67;100.00;99762.19;1747616;82;21082;-78
2022/04/13 08:37:38;;;;;;;9.70;6.50;;;;;;;4.74;100.00;99780.21;1743416;82;21034;-77
2022/04/13 08:40:06;;;;;;;10.90;7.12;;;;;;;4.80;100.00;99772.55;1740580;81;21098;-78
2022/04/13 08:42:47;;;;;;;9.78;7.15;;;;;;;4.84;100.00;99773.17;1749127;81;21014;-78
2022/04/13 08:45:24;;;;;;;10.45;7.37;;;;;;;4.88;100.00;99777.20;1703372;83;21535;-79
2022/04/13 08:47:56;;;;;;;17.92;14.28;;;;;;;4.96;100.00;99768.50;1731002;81;21100;-77
2022/04/13 08:50:30;;;;;;;11.10;7.80;;;;;;;5.04;100.00;99770.59;1682818;83;21060;-77
2022/04/13 08:53:02;;;;;;;12.58;7.47;;;;;;;5.08;100.00;99767.34;1694795;82;21093;-77
2022/04/13 08:55:32;;;;;;;15.55;8.38;;;;;;;5.14;100.00;99761.30;1723385;82;21039;-77
2022/04/13 08:58:30;;;;;;;13.40;8.65;;;;;;;5.23;100.00;99763.75;1725734;82;21026;-77
2022/04/13 09:01:02;;;;;;;13.55;9.25;;;;;;;5.29;100.00;99763.81;1740384;82;21916;-79
2022/04/13 09:03:46;;;;;;;14.68;9.90;;;;;;;5.35;100.00;99756.46;1707260;82;21092;-77
2022/04/13 09:06:13;;;;;;;;;;;;;;;5.43;100.00;99752.09;1707422;83;21046;-81
2022/04/13 09:08:51;;;;;;;15.23;9.30;;;;;;;5.52;100.00;99762.25;1715652;82;20169;-79
2022/04/13 09:11:21;;;;;;;16.27;10.38;;;;;;;5.59;100.00;99755.73;1715784;82;21010;-79
2022/04/13 09:13:51;;;;;;;11.90;8.73;;;;;;;5.68;100.00;99757.70;1735214;82;24235;-77
2022/04/13 09:16:19;;;;;;;15.98;10.32;;;;;;;5.77;100.00;99754.12;1743146;81;21113;-77
2022/04/13 09:18:47;;;;;;;16.73;10.68;;;;;;;5.83;100.00;99754.53;1733683;82;21969;-77
2022/04/13 09:21:17;;;;;;;16.90;9.73;;;;;;;5.88;100.00;99750.34;1737029;82;21662;-77
2022/04/13 09:23:47;;;;;;;16.85;11.00;;;;;;;5.93;100.00;99746.96;1735923;82;21080;-80
2022/04/13 09:26:15;;;;;;;12.70;7.58;;;;;;;6.00;100.00;99743.05;1711174;82;21156;-78
2022/04/13 09:28:43;;;;;;;18.07;12.18;;;;;;;6.12;100.00;99745.72;1700434;83;21285;-78
2022/04/13 09:31:10;;;;;;;15.35;11.93;;;;;;;6.23;100.00;99739.30;1729134;82;21105;-78
2022/04/13 09:33:39;;;;;;;20.37;12.15;;;;;;;6.35;100.00;99738.89;1719292;82;21083;-78
2022/04/13 09:36:07;;;;;;;20.92;12.63;;;;;;;6.47;100.00;99747.09;1714061;82;21063;-78
2022/04/13 09:38:35;;;;;;;17.32;11.55;;;;;;;6.55;100.00;99747.81;1732506;82;21288;-78
2022/04/13 09:41:10;;;;;;;18.42;12.50;;;;;;;6.65;100.00;99747.15;1730797;82;21054;-77
2022/04/13 09:43:38;;;;;;;16.73;11.15;;;;;;;6.74;100.00;99745.19;1714257;82;21087;-78
2022/04/13 09:46:08;;;;;;;18.12;12.25;;;;;;;6.84;100.00;99748.77;1731000;81;21122;-79
2022/04/13 09:48:37;;;;;;;19.00;13.18;;;;;;;6.97;100.00;99740.09;1728256;82;21038;-77
2022/04/13 09:51:06;;;;;;;18.35;12.20;;;;;;;7.11;100.00;99746.35;1730431;82;21030;-78
2022/04/13 09:53:40;;;;;;;20.50;13.32;;;;;;;7.23;100.00;99748.49;1731760;82;21009;-79
2022/04/13 09:56:13;;;;;;;17.82;12.13;;;;;;;7.29;100.00;99748.02;1723254;81;21011;-78
2022/04/13 09:58:41;;;;;;;20.72;13.43;;;;;;;7.35;100.00;99746.75;1714659;82;21085;-78
2022/04/13 10:01:09;;;;;;;21.42;13.90;;;;;;;7.41;100.00;99748.41;1690995;82;21040;-77
2022/04/13 10:03:36;;;;;;;22.87;14.03;;;;;;;7.53;100.00;99748.44;1731558;81;21087;-80
2022/04/13 10:06:04;;;;;;;18.75;13.83;;;;;;;7.67;100.00;99748.20;1734105;81;21014;-80
2022/04/13 10:08:31;;;;;;;21.68;13.43;;;;;;;7.80;100.00;99762.33;1695613;83;21680;-81
2022/04/13 10:11:00;;;;;;;18.45;13.30;;;;;;;7.94;100.00;99759.13;1689462;82;21538;-78
2022/04/13 10:13:42;;;;;;;18.02;13.50;;;;;;;8.13;100.00;99760.62;1730427;82;20989;-81
2022/04/13 10:16:12;;;;;;;21.77;15.18;;;;;;;8.32;100.00;99763.91;1720657;82;21814;-78
2022/04/13 10:18:59;;;;;;;21.68;15.32;;;;;;;8.53;100.00;99754.09;1693991;82;21072;-79
2022/04/13 10:21:50;;;;;;;20.08;14.38;;;;;;;8.64;100.00;99757.11;1701249;81;21816;-81
2022/04/13 10:24:27;;;;;;;21.27;16.02;;;;;;;8.69;100.00;99756.28;1731290;82;21112;-78
2022/04/13 10:27:15;;;;;;;17.80;13.70;;;;;;;8.79;100.00;99758.46;1723518;81;21071;-79
2022/04/13 10:29:46;;;;;;;23.47;16.27;;;;;;;8.84;100.00;99753.73;1706107;83;21235;-78
2022/04/13 10:32:24;;;;;;;21.73;16.42;;;;;;;8.90;100.00;99765.86;1700655;83;21314;-79
2022/04/13 10:34:59;;;;;;;24.40;15.93;;;;;;;8.94;100.00;99767.23;1705153;82;21060;-78
2022/04/13 10:37:28;;;;;;;20.65;14.87;;;;;;;8.99;100.00;99763.81;1687963;84;21048;-77
2022/04/13 10:40:01;;;;;;;19.42;16.35;;;;;;;9.03;100.00;99772.98;1723295;81;21023;-76
2022/04/13 10:42:28;;;;;;;22.75;16.10;;;;;;;9.06;100.00;99763.66;1734303;82;22279;-78
2022/04/13 10:45:06;;;;;;;20.62;16.00;;;;;;;9.02;100.00;99766.14;1722196;82;21576;-77
2022/04/13 10:47:56;;;;;;;22.27;16.05;;;;;;;9.00;100.00;99761.56;1713711;83;21058;-77
2022/04/13 10:50:37;;;;;;;21.57;17.10;;;;;;;8.97;100.00;99769.59;1722092;82;21059;-77
2022/04/13 10:53:31;;;;;;;26.70;17.70;;;;;;;8.95;100.00;99761.10;1690404;82;21026;-78
2022/04/13 10:56:04;;;;;;;24.82;18.55;;;;;;;8.95;100.00;99768.43;1727488;82;21108;-80
2022/04/13 10:59:21;;;;;;;24.43;17.73;;;;;;;8.94;100.00;99773.27;1714145;83;21067;-81
2022/04/13 11:01:59;;;;;;;24.23;17.42;;;;;;;8.95;100.00;99778.82;1695686;82;21088;-79
2022/04/13 11:04:31;;;;;;;23.47;17.77;;;;;;;8.97;100.00;99790.38;1736773;82;21007;-79
2022/04/13 11:07:01;;;;;;;24.40;18.25;;;;;;;8.99;100.00;99783.28;1734867;82;21109;-81
2022/04/13 11:09:40;;;;;;;24.98;19.25;;;;;;;9.02;100.00;99789.51;1729135;82;21043;-80
2022/04/13 11:12:10;;;;;;;24.87;18.55;;;;;;;9.07;100.00;99792.57;1729526;82;21524;-79
2022/04/13 11:14:54;;;;;;;24.52;17.45;;;;;;;9.13;100.00;99788.66;1703706;83;21042;-80
2022/04/13 11:17:27;;;;;;;23.95;19.42;;;;;;;9.18;100.00;99786.95;1706301;83;21042;-79
2022/04/13 11:20:20;;;;;;;23.25;18.65;;;;;;;9.24;100.00;99805.46;1724443;83;21517;-84
2022/04/13 11:23:10;;;;;;;28.42;19.42;;;;;;;9.30;100.00;99791.95;1731485;82;21257;-83
2022/04/13 11:25:47;;;;;;;26.48;20.62;;;;;;;9.37;100.00;99791.47;1706447;83;21008;-80
2022/04/13 11:28:34;;;;;;;28.23;20.45;;;;;;;9.44;100.00;99799.09;1706969;82;21532;-78
2022/04/13 11:31:09;;;;;;;26.40;21.12;;;;;;;9.50;100.00;99793.84;1731487;82;21840;-79
2022/04/13 11:33:53;;;;;;;26.95;20.95;;;;;;;9.54;100.00;99792.65;1720005;82;21093;-80
2022/04/13 11:36:24;;;;;;;26.40;20.62;;;;;;;9.58;100.00;99788.36;1721415;82;21276;-81
2022/04/13 11:38:53;;;;;;;26.33;20.50;;;;;;;9.61;100.00;99788.09;1736850;81;21504;-80
2022/04/13 11:41:22;;;;;;;26.55;19.95;;;;;;;9.66;100.00;99790.79;1692581;83;21068;-78
2022/04/13 11:43:50;;;;;;;27.60;21.48;;;;;;;9.72;100.00;99792.41;1709158;82;21022;-78
2022/04/13 11:46:41;;;;;;;27.80;20.95;;;;;;;9.78;100.00;99791.88;1748465;82;21061;-79
2022/04/13 11:49:11;;;;;;;27.37;21.62;;;;;;;9.86;100.00;99791.70;1722842;82;21897;-78